Diosdado Macapagal International Airport
RPLC : now visible

Airfield :











YOU CAN JOIN US ON...

 
LOGIN :

Register | Disclaimer

   EN    FR    IT 

 









Legend :    VFR   Marginal VFR   IFR   Intensive IFR   Very Intensive IFR
Visi :
Ceiling :
>= 8 km
>= 3000ft
5 to 8 km
1000 to 3000 ft
1500m to 5 km
500 to 1000 ft
800 to 1500m
200 to 500 ft
< 800m
< 200 ft
Symbols :   Thunderstorms  Fog  Heavy snow  Heavy precipitations  Wind > 20 kt






- Airport Elevation : 484 ft
- IATA code : CRK


RPLC - Diosdado Macapagal International

CURRENT METAR :
  • 021000Z 09004KT 9999 FEW020 32/21 Q1012 NOSIG RMK A2988

EXPIRED METARs :
  • 020900Z 14008KT 9999 FEW020 34/21 Q1011 NOSIG RMK A2985
  • 020800Z 11010KT 9999 FEW020 35/21 Q1011 NOSIG RMK A2985

TAF TAF RPLC
Valid from the 02 at 06:00 until the 03 at 12:00 UTC


020500Z 0206/0312 07006KT 9999 FEW020 BKN300 TX35/0206Z TN24/0222Z
TEMPO 0206/0212 01008KT SCT020 BKN100



MET'MAP, your aeronautical weather chart ! - Copyright ORBIFLY December 2007 - Disclaimer

ORBIFLY MET'MAP TEAM :

Programming & Development : Alexandra Zaïnal
Concept & original design : Baudouin d'Aumeries
Assistance for programming : Marc-Olivier Méhu
Technical & hardware support : Manuel Goepfert

Contact : metmap@orbifly.com




SOURCES & CREDITS :

   NOAA       Earth
Advisory